createdAt,value
2024-03-12T06:01:38.654Z,576.00
2024-03-12T06:02:15.295Z,575.00
2024-03-12T06:03:15.297Z,572.00
2024-03-12T06:04:15.378Z,567.00
2024-03-12T06:05:15.391Z,567.00
2024-03-12T06:06:15.410Z,565.00
2024-03-12T06:07:18.186Z,566.00
2024-03-12T06:08:15.518Z,569.00
2024-03-12T06:09:15.514Z,566.00
2024-03-12T06:10:15.624Z,571.00
2024-03-12T06:11:15.632Z,571.00
2024-03-12T06:12:15.544Z,570.00
2024-03-12T06:13:15.547Z,568.00
2024-03-12T06:14:15.517Z,568.00
2024-03-12T06:15:15.873Z,567.00
2024-03-12T06:16:15.556Z,567.00
2024-03-12T06:17:15.541Z,565.00
2024-03-12T06:18:15.504Z,568.00
2024-03-12T06:19:15.610Z,566.00
2024-03-12T06:20:15.575Z,568.00
2024-03-12T06:21:15.561Z,567.00
2024-03-12T06:22:15.618Z,569.00
2024-03-12T06:23:15.558Z,568.00
2024-03-12T06:24:15.554Z,568.00
2024-03-12T06:25:15.671Z,569.00
2024-03-12T06:26:15.568Z,569.00
2024-03-12T06:27:15.545Z,571.00
2024-03-12T06:28:15.579Z,569.00
2024-03-12T06:29:15.574Z,570.00
2024-03-12T06:30:15.575Z,569.00
2024-03-12T06:31:15.666Z,567.00
2024-03-12T06:32:15.587Z,562.00
2024-03-12T06:33:15.584Z,564.00
2024-03-12T06:34:15.627Z,565.00
2024-03-12T06:35:15.562Z,562.00
2024-03-12T06:36:15.602Z,563.00
2024-03-12T06:37:15.613Z,564.00
2024-03-12T06:38:15.575Z,564.00
2024-03-12T06:39:15.882Z,563.00
2024-03-12T06:40:15.736Z,563.00
2024-03-12T06:41:15.653Z,562.00
2024-03-12T06:42:15.667Z,559.00
2024-03-12T06:43:15.747Z,559.00
2024-03-12T06:44:15.701Z,559.00
2024-03-12T06:45:15.833Z,559.00
2024-03-12T06:46:16.073Z,562.00
2024-03-12T06:47:16.130Z,563.00
2024-03-12T06:48:16.360Z,568.00
2024-03-12T06:49:16.570Z,565.00
2024-03-12T06:50:16.698Z,563.00
2024-03-12T06:51:16.948Z,569.00
2024-03-12T06:52:17.064Z,571.00
2024-03-12T06:53:17.040Z,575.00
2024-03-12T06:54:17.121Z,579.00
2024-03-12T06:55:17.657Z,583.00
2024-03-12T06:56:17.356Z,590.00
2024-03-12T06:57:17.342Z,633.00
2024-03-12T06:58:17.459Z,655.00
2024-03-12T06:59:17.507Z,672.00
2024-03-12T07:00:17.687Z,679.00
2024-03-12T07:01:17.853Z,684.00
2024-03-12T07:02:18.159Z,700.00
2024-03-12T07:03:18.302Z,704.00
2024-03-12T07:04:18.380Z,708.00
2024-03-12T07:05:18.481Z,716.00
2024-03-12T07:06:18.642Z,715.00
2024-03-12T07:07:18.816Z,714.00
2024-03-12T07:08:19.564Z,746.00
2024-03-12T07:09:19.148Z,750.00
2024-03-12T07:10:19.301Z,811.00
2024-03-12T07:11:19.408Z,784.00
2024-03-12T07:12:19.290Z,756.00
2024-03-12T07:13:19.522Z,905.00
2024-03-12T07:14:19.609Z,828.00
2024-03-12T07:15:19.814Z,802.00
2024-03-12T07:16:19.974Z,792.00
2024-03-12T07:17:20.124Z,787.00
2024-03-12T07:18:20.288Z,791.00
2024-03-12T07:19:20.475Z,792.00
2024-03-12T07:20:20.559Z,791.00
2024-03-12T07:21:20.658Z,789.00
2024-03-12T07:22:20.736Z,785.00
2024-03-12T07:23:20.801Z,796.00
2024-03-12T07:24:20.891Z,801.00
2024-03-12T07:25:21.086Z,799.00
2024-03-12T07:26:21.079Z,808.00
2024-03-12T07:27:21.192Z,817.00
2024-03-12T07:28:24.296Z,829.00
2024-03-12T07:29:21.283Z,847.00
2024-03-12T07:30:21.281Z,847.00
2024-03-12T07:31:21.391Z,844.00
2024-03-12T07:32:21.252Z,844.00
2024-03-12T07:33:21.310Z,841.00
2024-03-12T07:34:21.424Z,842.00
2024-03-12T07:35:21.323Z,843.00
2024-03-12T07:36:21.296Z,844.00
2024-03-12T07:37:21.306Z,847.00
2024-03-12T07:38:21.317Z,848.00
2024-03-12T07:39:21.261Z,847.00
2024-03-12T07:40:21.426Z,848.00
2024-03-12T07:41:21.279Z,856.00
2024-03-12T07:42:21.333Z,856.00
2024-03-12T07:43:21.313Z,863.00
2024-03-12T07:44:21.284Z,870.00
2024-03-12T07:45:21.328Z,872.00
2024-03-12T07:46:21.382Z,875.00
2024-03-12T07:47:21.312Z,877.00
2024-03-12T07:48:21.356Z,877.00
2024-03-12T07:49:21.380Z,886.00
2024-03-12T07:50:21.315Z,893.00
2024-03-12T07:51:21.322Z,902.00
2024-03-12T07:52:21.411Z,909.00
2024-03-12T07:53:21.335Z,916.00
2024-03-12T07:54:21.322Z,916.00
2024-03-12T07:55:21.392Z,917.00
2024-03-12T07:56:21.438Z,915.00
2024-03-12T07:57:21.632Z,918.00
2024-03-12T07:58:21.724Z,943.00
2024-03-12T07:59:21.857Z,947.00
2024-03-12T08:00:21.958Z,947.00
2024-03-12T08:01:22.189Z,944.00
2024-03-12T08:02:22.173Z,940.00
2024-03-12T08:03:22.301Z,937.00
2024-03-12T08:04:22.476Z,988.00
2024-03-12T08:05:22.549Z,981.00
2024-03-12T08:06:22.691Z,982.00
2024-03-12T08:07:22.823Z,984.00
2024-03-12T08:08:22.887Z,983.00
2024-03-12T08:09:23.015Z,985.00
2024-03-12T08:10:23.247Z,991.00
2024-03-12T08:11:23.495Z,999.00
2024-03-12T08:12:23.396Z,998.00
2024-03-12T08:13:23.967Z,985.00
2024-03-12T08:14:23.605Z,978.00
2024-03-12T08:15:23.800Z,985.00
2024-03-12T08:16:23.820Z,988.00
2024-03-12T08:17:23.937Z,989.00
2024-03-12T08:18:24.495Z,1002.00
2024-03-12T08:19:24.273Z,1003.00
2024-03-12T08:20:24.263Z,1007.00
2024-03-12T08:21:24.369Z,1010.00
2024-03-12T08:22:24.461Z,1009.00
2024-03-12T08:23:24.704Z,1012.00
2024-03-12T08:24:24.699Z,1007.00
2024-03-12T08:25:24.862Z,981.00
2024-03-12T08:26:25.391Z,973.00
2024-03-12T08:27:25.059Z,965.00
2024-03-12T08:28:25.126Z,961.00
2024-03-12T08:29:25.254Z,960.00
2024-03-12T08:30:25.363Z,957.00
2024-03-12T08:31:32.634Z,950.00
2024-03-12T08:32:26.772Z,934.00
2024-03-12T08:33:25.580Z,921.00
2024-03-12T08:34:25.493Z,918.00
2024-03-12T08:35:25.522Z,920.00
2024-03-12T08:36:25.497Z,920.00
2024-03-12T08:37:25.495Z,916.00
2024-03-12T08:38:25.516Z,910.00
2024-03-12T08:39:25.501Z,905.00
2024-03-12T08:40:25.734Z,898.00
2024-03-12T08:41:25.689Z,893.00
2024-03-12T08:42:25.827Z,892.00
2024-03-12T08:43:26.255Z,894.00
2024-03-12T08:44:26.041Z,900.00
2024-03-12T08:45:26.196Z,903.00
2024-03-12T08:46:26.307Z,905.00
2024-03-12T08:47:26.439Z,902.00
2024-03-12T08:48:26.616Z,889.00
2024-03-12T08:49:27.037Z,870.00
2024-03-12T08:50:26.605Z,857.00
2024-03-12T08:51:26.723Z,859.00
2024-03-12T08:52:26.774Z,861.00
2024-03-12T08:53:26.774Z,876.00
2024-03-12T08:54:27.155Z,895.00
2024-03-12T08:55:26.888Z,892.00
2024-03-12T08:56:26.855Z,893.00
2024-03-12T08:57:26.957Z,894.00
2024-03-12T08:58:26.957Z,898.00
2024-03-12T08:59:27.071Z,906.00
2024-03-12T09:00:27.177Z,948.00
2024-03-12T09:01:27.458Z,940.00
2024-03-12T09:02:27.458Z,940.00
2024-03-12T09:03:27.528Z,945.00
2024-03-12T09:04:27.664Z,948.00
2024-03-12T09:05:27.830Z,949.00
2024-03-12T09:06:27.916Z,947.00
2024-03-12T09:07:35.150Z,949.00
2024-03-12T09:08:35.179Z,947.00
2024-03-12T09:09:35.173Z,949.00
2024-03-12T09:10:35.240Z,950.00
2024-03-12T09:11:35.322Z,953.00
2024-03-12T09:12:35.194Z,953.00
2024-03-12T09:13:35.193Z,954.00
2024-03-12T09:14:35.194Z,954.00
2024-03-12T09:15:35.269Z,956.00
2024-03-12T09:16:35.194Z,961.00
2024-03-12T09:17:35.200Z,972.00
2024-03-12T09:18:35.229Z,982.00
2024-03-12T09:19:35.195Z,984.00
2024-03-12T09:20:35.194Z,988.00
2024-03-12T09:21:35.391Z,993.00
2024-03-12T09:22:36.250Z,994.00
2024-03-12T09:23:39.682Z,999.00
2024-03-12T09:24:36.258Z,1005.00
2024-03-12T09:25:35.231Z,1013.00
2024-03-12T09:26:35.188Z,1023.00
2024-03-12T09:27:35.319Z,1026.00
2024-03-12T09:28:35.236Z,1030.00
2024-03-12T09:29:35.185Z,1039.00
2024-03-12T09:30:35.240Z,1042.00
2024-03-12T09:31:36.673Z,1049.00
2024-03-12T09:32:35.218Z,1092.00
2024-03-12T09:33:35.260Z,1063.00
2024-03-12T09:34:35.221Z,1059.00
2024-03-12T09:35:35.188Z,1042.00
2024-03-12T09:36:35.352Z,1019.00
2024-03-12T09:37:35.393Z,1033.00
2024-03-12T09:38:35.472Z,1034.00
2024-03-12T09:39:35.551Z,1039.00
2024-03-12T09:40:35.661Z,1035.00
2024-03-12T09:41:35.713Z,1033.00
2024-03-12T09:42:35.859Z,1015.00
2024-03-12T09:43:35.877Z,1008.00
2024-03-12T09:44:35.970Z,1010.00
2024-03-12T09:45:36.120Z,1012.00
2024-03-12T09:46:36.178Z,1014.00
2024-03-12T09:47:36.334Z,1026.00
2024-03-12T09:48:36.328Z,1028.00
2024-03-12T09:49:36.408Z,1020.00
2024-03-12T09:50:36.506Z,1024.00
2024-03-12T09:51:36.720Z,1033.00
2024-03-12T09:52:36.676Z,1035.00
2024-03-12T09:53:36.771Z,1041.00
2024-03-12T09:54:37.301Z,1051.00
2024-03-12T09:55:36.882Z,1060.00
2024-03-12T09:56:36.926Z,1047.00
2024-03-12T09:57:36.985Z,1013.00
2024-03-12T09:58:36.931Z,1009.00
2024-03-12T09:59:36.963Z,903.00
2024-03-12T10:00:37.104Z,899.00
2024-03-12T10:01:37.083Z,887.00
2024-03-12T10:02:37.307Z,893.00
2024-03-12T10:03:37.242Z,894.00
2024-03-12T10:04:37.136Z,982.00
2024-03-12T10:05:37.192Z,980.00
2024-03-12T10:06:37.219Z,980.00
2024-03-12T10:07:37.305Z,983.00
2024-03-12T10:08:37.292Z,987.00
2024-03-12T10:09:37.403Z,984.00
2024-03-12T10:10:37.389Z,844.00
2024-03-12T10:11:37.520Z,806.00
2024-03-12T10:12:37.567Z,770.00
2024-03-12T10:13:37.692Z,723.00
2024-03-12T10:14:37.793Z,718.00
2024-03-12T10:15:37.889Z,724.00
2024-03-12T10:16:37.955Z,736.00
2024-03-12T10:17:38.064Z,742.00
2024-03-12T10:18:38.163Z,740.00
2024-03-12T10:19:38.258Z,735.00
2024-03-12T10:20:38.405Z,726.00
2024-03-12T10:21:38.567Z,709.00
2024-03-12T10:22:38.606Z,635.00
2024-03-12T10:23:38.967Z,652.00
2024-03-12T10:24:38.869Z,652.00
2024-03-12T10:25:38.980Z,652.00
2024-03-12T10:26:39.085Z,637.00
2024-03-12T10:27:39.205Z,639.00
2024-03-12T10:28:39.355Z,620.00
2024-03-12T10:29:39.834Z,607.00
2024-03-12T10:30:39.484Z,612.00
2024-03-12T10:31:39.521Z,613.00
2024-03-12T10:32:39.604Z,619.00
2024-03-12T10:33:39.677Z,627.00
2024-03-12T10:34:39.818Z,632.00
2024-03-12T10:35:39.899Z,632.00
2024-03-12T10:36:40.058Z,637.00
2024-03-12T10:37:40.204Z,640.00
2024-03-12T10:38:40.419Z,651.00
2024-03-12T10:39:40.974Z,656.00
2024-03-12T10:40:40.614Z,648.00
2024-03-12T10:41:40.680Z,634.00
2024-03-12T10:42:40.760Z,625.00
2024-03-12T10:43:40.790Z,631.00
2024-03-12T10:44:41.326Z,635.00
2024-03-12T10:45:41.095Z,628.00
2024-03-12T10:46:41.034Z,630.00
2024-03-12T10:47:41.087Z,629.00
2024-03-12T10:48:41.294Z,631.00
2024-03-12T10:49:41.849Z,628.00
2024-03-12T10:50:41.508Z,620.00
2024-03-12T10:51:41.699Z,592.00
2024-03-12T10:52:41.659Z,585.00
2024-03-12T10:53:41.740Z,585.00
2024-03-12T10:54:43.571Z,584.00
2024-03-12T10:55:41.893Z,576.00
2024-03-12T10:56:41.898Z,588.00
2024-03-12T10:57:41.924Z,610.00
2024-03-12T10:58:41.831Z,703.00
2024-03-12T10:59:41.855Z,719.00
2024-03-12T11:00:41.866Z,734.00
2024-03-12T11:01:41.948Z,750.00
2024-03-12T11:02:42.350Z,764.00
2024-03-12T11:03:41.847Z,781.00
2024-03-12T11:04:41.822Z,787.00
2024-03-12T11:05:41.860Z,798.00
2024-03-12T11:06:41.858Z,801.00
2024-03-12T11:07:41.861Z,814.00
2024-03-12T11:08:41.834Z,822.00
2024-03-12T11:09:41.941Z,830.00
2024-03-12T11:10:41.851Z,841.00
2024-03-12T11:11:41.867Z,852.00
2024-03-12T11:12:41.887Z,877.00
2024-03-12T11:13:41.847Z,891.00
2024-03-12T11:14:41.842Z,889.00
2024-03-12T11:15:41.864Z,893.00
2024-03-12T11:16:41.839Z,899.00
2024-03-12T11:17:41.897Z,901.00
2024-03-12T11:18:41.858Z,904.00
2024-03-12T11:19:41.845Z,901.00
2024-03-12T11:20:41.853Z,888.00
2024-03-12T11:21:41.938Z,844.00
2024-03-12T11:22:41.851Z,832.00
2024-03-12T11:23:42.372Z,833.00
2024-03-12T11:24:41.872Z,833.00
2024-03-12T11:25:41.876Z,836.00
2024-03-12T11:26:43.016Z,840.00
2024-03-12T11:27:41.922Z,894.00
2024-03-12T11:28:41.978Z,902.00
2024-03-12T11:29:42.101Z,905.00
2024-03-12T11:30:42.234Z,896.00
2024-03-12T11:31:42.375Z,893.00
2024-03-12T11:32:42.435Z,885.00
2024-03-12T11:33:42.601Z,895.00
2024-03-12T11:34:42.643Z,944.00
2024-03-12T11:35:42.724Z,942.00
2024-03-12T11:36:42.884Z,956.00
2024-03-12T11:37:42.960Z,945.00
2024-03-12T11:38:43.121Z,937.00
2024-03-12T11:39:43.215Z,930.00
2024-03-12T11:40:43.313Z,935.00
2024-03-12T11:41:43.423Z,950.00
2024-03-12T11:42:43.548Z,951.00
2024-03-12T11:43:43.610Z,952.00
2024-03-12T11:44:43.680Z,960.00
2024-03-12T11:45:43.981Z,959.00
2024-03-12T11:46:43.924Z,961.00
2024-03-12T11:47:44.271Z,964.00
2024-03-12T11:48:44.186Z,969.00
2024-03-12T11:49:44.216Z,969.00
2024-03-12T11:50:44.469Z,971.00
2024-03-12T11:51:44.481Z,980.00
2024-03-12T11:52:44.561Z,986.00
2024-03-12T11:53:44.692Z,985.00
2024-03-12T11:54:44.892Z,988.00
2024-03-12T11:55:44.836Z,992.00
2024-03-12T11:56:44.997Z,992.00
2024-03-12T11:57:45.090Z,992.00
2024-03-12T11:58:45.132Z,996.00
2024-03-12T11:59:45.262Z,999.00
2024-03-12T12:00:45.589Z,1003.00
2024-03-12T12:01:45.450Z,1048.00
2024-03-12T12:02:45.455Z,1048.00
2024-03-12T12:03:45.707Z,1053.00
2024-03-12T12:04:45.654Z,1094.00
2024-03-12T12:05:45.688Z,1152.00
2024-03-12T12:06:45.814Z,1170.00
2024-03-12T12:07:45.858Z,1161.00
2024-03-12T12:08:53.418Z,1162.00
2024-03-12T12:09:47.192Z,1163.00
2024-03-12T12:10:45.937Z,829.00
2024-03-12T12:11:46.043Z,830.00
2024-03-12T12:12:46.103Z,832.00
2024-03-12T12:13:45.946Z,750.00
2024-03-12T12:14:45.934Z,741.00
2024-03-12T12:15:45.992Z,727.00
2024-03-12T12:16:45.915Z,721.00
2024-03-12T12:17:45.959Z,711.00
2024-03-12T12:18:46.007Z,697.00
2024-03-12T12:19:46.201Z,642.00
2024-03-12T12:20:46.189Z,611.00
2024-03-12T12:21:46.514Z,593.00
2024-03-12T12:22:46.427Z,590.00
2024-03-12T12:23:46.514Z,595.00
2024-03-12T12:24:46.672Z,610.00
2024-03-12T12:25:46.683Z,610.00
2024-03-12T12:26:46.818Z,601.00
2024-03-12T12:27:46.859Z,600.00
2024-03-12T12:28:47.027Z,590.00
2024-03-12T12:29:48.375Z,586.00
2024-03-12T12:30:47.326Z,585.00
2024-03-12T12:31:47.269Z,588.00
2024-03-12T12:32:47.387Z,593.00
2024-03-12T12:33:47.432Z,603.00
2024-03-12T12:34:47.394Z,634.00
2024-03-12T12:35:50.546Z,630.00
2024-03-12T12:36:47.537Z,629.00
2024-03-12T12:37:47.522Z,638.00
2024-03-12T12:38:55.031Z,655.00
2024-03-12T12:39:53.549Z,665.00
2024-03-12T12:40:48.585Z,671.00
2024-03-12T12:41:47.934Z,674.00
2024-03-12T12:42:47.579Z,679.00
2024-03-12T12:43:47.517Z,682.00
2024-03-12T12:44:47.914Z,683.00
2024-03-12T12:45:47.628Z,681.00
2024-03-12T12:46:48.103Z,687.00
2024-03-12T12:47:47.600Z,687.00
2024-03-12T12:48:47.569Z,689.00
2024-03-12T12:49:47.556Z,688.00
2024-03-12T12:50:47.584Z,681.00
2024-03-12T12:51:48.184Z,676.00
2024-03-12T12:52:47.585Z,627.00
2024-03-12T12:53:47.618Z,641.00
2024-03-12T12:54:47.673Z,642.00
2024-03-12T12:55:47.630Z,671.00
2024-03-12T12:56:48.319Z,677.00
2024-03-12T12:57:47.615Z,681.00
2024-03-12T12:58:47.624Z,691.00
2024-03-12T12:59:47.631Z,706.00
2024-03-12T13:00:47.661Z,715.00
2024-03-12T13:01:47.766Z,720.00
2024-03-12T13:02:48.107Z,723.00
2024-03-12T13:03:47.742Z,726.00
2024-03-12T13:04:47.619Z,729.00
2024-03-12T13:05:47.760Z,723.00
2024-03-12T13:06:47.606Z,748.00
2024-03-12T13:07:47.620Z,809.00
2024-03-12T13:08:47.602Z,814.00
2024-03-12T13:09:47.676Z,817.00
2024-03-12T13:10:47.665Z,799.00
2024-03-12T13:11:47.715Z,800.00
2024-03-12T13:12:48.454Z,798.00
2024-03-12T13:13:47.957Z,777.00
2024-03-12T13:14:48.072Z,770.00
2024-03-12T13:15:48.216Z,768.00
2024-03-12T13:16:48.285Z,765.00
2024-03-12T13:17:48.381Z,758.00
2024-03-12T13:18:48.532Z,751.00
2024-03-12T13:19:48.600Z,748.00
2024-03-12T13:20:48.698Z,745.00
2024-03-12T13:21:48.935Z,737.00
2024-03-12T13:22:48.996Z,731.00
2024-03-12T13:23:49.037Z,728.00
2024-03-12T13:24:49.242Z,726.00
2024-03-12T13:25:49.271Z,724.00
2024-03-12T13:26:49.424Z,721.00
2024-03-12T13:27:49.579Z,715.00
2024-03-12T13:28:49.632Z,711.00
2024-03-12T13:30:26.667Z,702.00
2024-03-12T13:31:26.693Z,699.00
2024-03-12T13:32:26.689Z,701.00
2024-03-12T13:33:26.699Z,699.00
2024-03-12T13:34:26.714Z,697.00
2024-03-12T13:35:26.659Z,695.00
2024-03-12T13:36:26.698Z,693.00
2024-03-12T13:37:26.724Z,688.00
2024-03-12T13:38:26.707Z,687.00
2024-03-12T13:39:26.710Z,686.00
2024-03-12T13:40:26.977Z,686.00
2024-03-12T13:41:26.673Z,680.00
2024-03-12T13:42:26.799Z,677.00
2024-03-12T13:43:26.742Z,675.00
2024-03-12T13:44:26.733Z,671.00
2024-03-12T13:45:26.731Z,669.00
2024-03-12T13:46:26.760Z,664.00
2024-03-12T13:47:26.766Z,664.00
2024-03-12T13:48:26.732Z,663.00
2024-03-12T13:49:26.919Z,662.00
2024-03-12T13:50:26.741Z,663.00
2024-03-12T13:51:26.715Z,659.00
2024-03-12T13:52:26.763Z,655.00
2024-03-12T13:53:26.712Z,652.00
2024-03-12T13:54:26.729Z,653.00
2024-03-12T13:55:26.756Z,650.00
2024-03-12T13:56:26.929Z,645.00
2024-03-12T13:57:27.013Z,643.00
2024-03-12T13:58:27.162Z,643.00
2024-03-12T13:59:27.450Z,641.00
2024-03-12T14:00:27.356Z,639.00
2024-03-12T14:01:27.655Z,637.00
2024-03-12T14:02:27.690Z,637.00
2024-03-12T14:03:27.693Z,637.00
2024-03-12T14:04:31.215Z,634.00
2024-03-12T14:05:27.825Z,634.00
2024-03-12T14:06:27.870Z,633.00
2024-03-12T14:07:27.900Z,633.00
2024-03-12T14:08:27.818Z,631.00
2024-03-12T14:09:27.846Z,627.00
2024-03-12T14:10:27.938Z,623.00
2024-03-12T14:11:27.929Z,623.00
2024-03-12T14:12:27.873Z,625.00
2024-03-12T14:13:27.914Z,623.00
2024-03-12T14:14:27.894Z,621.00
2024-03-12T14:15:27.850Z,622.00
2024-03-12T14:16:27.953Z,621.00
2024-03-12T14:17:27.874Z,620.00
2024-03-12T14:18:28.116Z,618.00
2024-03-12T14:19:27.980Z,619.00
2024-03-12T14:20:28.041Z,621.00
2024-03-12T14:21:29.827Z,620.00
2024-03-12T14:22:28.275Z,619.00
2024-03-12T14:23:28.283Z,619.00
2024-03-12T14:24:28.270Z,616.00
2024-03-12T14:25:28.332Z,614.00
2024-03-12T14:26:28.404Z,615.00
2024-03-12T14:27:28.530Z,616.00
2024-03-12T14:28:28.689Z,615.00
2024-03-12T14:29:28.785Z,613.00
2024-03-12T14:30:28.901Z,613.00
2024-03-12T14:31:29.075Z,614.00
2024-03-12T14:32:29.122Z,613.00
2024-03-12T14:33:29.987Z,613.00
2024-03-12T14:34:29.350Z,611.00
2024-03-12T14:35:29.314Z,614.00
2024-03-12T14:36:29.382Z,615.00
2024-03-12T14:37:29.364Z,615.00
2024-03-12T14:38:29.504Z,616.00
2024-03-12T14:39:29.622Z,615.00
2024-03-12T14:40:29.809Z,617.00
2024-03-12T14:41:29.843Z,617.00
2024-03-12T14:42:29.955Z,614.00
2024-03-12T14:43:30.128Z,613.00
2024-03-12T14:44:30.319Z,614.00
2024-03-12T14:45:30.386Z,615.00
2024-03-12T14:46:30.549Z,615.00
2024-03-12T14:47:30.643Z,617.00
2024-03-12T14:48:30.755Z,616.00
2024-03-12T14:49:35.972Z,614.00
2024-03-12T14:50:31.864Z,614.00
2024-03-12T14:51:30.858Z,617.00
2024-03-12T14:52:30.859Z,617.00
2024-03-12T14:53:30.881Z,617.00
2024-03-12T14:54:30.891Z,620.00
2024-03-12T14:55:31.016Z,621.00
2024-03-12T14:56:30.915Z,619.00
2024-03-12T14:57:30.898Z,617.00
2024-03-12T14:58:31.009Z,613.00
2024-03-12T14:59:31.110Z,612.00
2024-03-12T15:00:31.226Z,613.00
2024-03-12T15:01:31.458Z,612.00
2024-03-12T15:02:31.492Z,613.00
2024-03-12T15:03:31.662Z,611.00
2024-03-12T15:04:33.330Z,614.00
2024-03-12T15:05:31.870Z,614.00
2024-03-12T15:06:31.746Z,613.00
2024-03-12T15:07:31.875Z,618.00
2024-03-12T15:08:31.869Z,624.00
2024-03-12T15:09:31.982Z,627.00
2024-03-12T15:10:32.175Z,629.00
2024-03-12T15:11:32.218Z,632.00
2024-03-12T15:12:32.327Z,635.00
2024-03-12T15:13:32.518Z,638.00
2024-03-12T15:14:32.621Z,636.00
2024-03-12T15:15:32.786Z,637.00
2024-03-12T15:16:32.769Z,641.00
2024-03-12T15:17:32.889Z,646.00
2024-03-12T15:18:34.259Z,649.00
2024-03-12T15:19:33.023Z,651.00
2024-03-12T15:20:33.044Z,660.00
2024-03-12T15:21:33.072Z,665.00
2024-03-12T15:22:33.040Z,665.00
2024-03-12T15:23:33.056Z,667.00
2024-03-12T15:24:34.832Z,666.00
2024-03-12T15:25:33.313Z,669.00
2024-03-12T15:26:33.042Z,671.00
2024-03-12T15:27:33.042Z,671.00
2024-03-12T15:28:33.072Z,671.00
2024-03-12T15:29:33.147Z,674.00
2024-03-12T15:30:33.141Z,676.00
2024-03-12T15:31:33.082Z,685.00
2024-03-12T15:32:33.066Z,691.00
2024-03-12T15:33:33.318Z,692.00
2024-03-12T15:34:33.059Z,687.00
2024-03-12T15:35:33.038Z,688.00
2024-03-12T15:36:33.111Z,686.00
2024-03-12T15:37:33.044Z,686.00
2024-03-12T15:38:33.030Z,683.00
2024-03-12T15:39:33.084Z,683.00
2024-03-12T15:40:33.133Z,682.00
2024-03-12T15:41:33.049Z,683.00
2024-03-12T15:42:33.106Z,686.00
2024-03-12T15:43:33.118Z,689.00
2024-03-12T15:44:33.073Z,691.00
2024-03-12T15:45:33.111Z,691.00
2024-03-12T15:46:33.079Z,692.00
2024-03-12T15:47:33.065Z,692.00
2024-03-12T15:48:33.129Z,692.00
2024-03-12T15:49:33.179Z,692.00
2024-03-12T15:50:33.094Z,690.00
2024-03-12T15:51:33.179Z,691.00
2024-03-12T15:52:33.093Z,693.00
2024-03-12T15:53:33.087Z,695.00
2024-03-12T15:54:33.218Z,694.00
2024-03-12T15:55:33.262Z,694.00
2024-03-12T15:56:33.098Z,693.00
2024-03-12T15:57:33.858Z,693.00
2024-03-12T15:58:35.357Z,692.00
2024-03-12T15:59:33.222Z,691.00
2024-03-12T16:00:33.397Z,694.00
2024-03-12T16:01:33.504Z,692.00
2024-03-12T16:02:33.388Z,692.00
2024-03-12T16:03:33.523Z,693.00
2024-03-12T16:04:33.479Z,695.00
2024-03-12T16:05:33.541Z,695.00
2024-03-12T16:06:33.683Z,696.00
2024-03-12T16:07:33.678Z,696.00
2024-03-12T16:08:33.604Z,696.00
2024-03-12T16:09:33.740Z,696.00
2024-03-12T16:10:33.736Z,696.00
2024-03-12T16:11:33.841Z,694.00
2024-03-12T16:12:34.059Z,695.00
2024-03-12T16:13:34.141Z,695.00
2024-03-12T16:14:34.220Z,696.00
2024-03-12T16:15:34.345Z,695.00
2024-03-12T16:16:34.396Z,698.00
2024-03-12T16:17:34.594Z,699.00
2024-03-12T16:18:34.712Z,699.00
2024-03-12T16:19:34.795Z,699.00
2024-03-12T16:20:34.821Z,699.00
2024-03-12T16:21:35.040Z,697.00
2024-03-12T16:22:35.087Z,696.00
2024-03-12T16:23:35.223Z,692.00
2024-03-12T16:24:35.348Z,693.00
2024-03-12T16:25:35.405Z,695.00
2024-03-12T16:26:35.539Z,696.00
2024-03-12T16:27:35.584Z,696.00
2024-03-12T16:28:35.654Z,696.00
2024-03-12T16:29:35.750Z,696.00
2024-03-12T16:30:35.988Z,694.00
2024-03-12T16:31:36.088Z,692.00
2024-03-12T16:32:36.099Z,692.00
2024-03-12T16:33:36.268Z,692.00
2024-03-12T16:34:36.303Z,694.00
2024-03-12T16:35:36.502Z,690.00
2024-03-12T16:36:36.651Z,690.00
2024-03-12T16:37:36.700Z,691.00
2024-03-12T16:38:36.818Z,690.00
2024-03-12T16:39:36.970Z,695.00
2024-03-12T16:40:37.047Z,696.00
2024-03-12T16:41:37.180Z,692.00
2024-03-12T16:42:37.449Z,694.00
2024-03-12T16:43:37.238Z,694.00
2024-03-12T16:44:37.353Z,693.00
2024-03-12T16:45:37.603Z,694.00
2024-03-12T16:46:37.568Z,695.00
2024-03-12T16:47:37.755Z,696.00
2024-03-12T16:48:40.731Z,695.00
2024-03-12T16:49:37.790Z,697.00
2024-03-12T16:50:37.845Z,701.00
2024-03-12T16:51:37.829Z,704.00
2024-03-12T16:52:37.844Z,704.00
2024-03-12T16:53:37.815Z,705.00
2024-03-12T16:54:37.810Z,701.00
2024-03-12T16:55:37.834Z,703.00
2024-03-12T16:56:37.831Z,701.00
2024-03-12T16:57:37.936Z,701.00
2024-03-12T16:58:37.826Z,703.00
2024-03-12T16:59:37.819Z,701.00
2024-03-12T17:00:38.903Z,701.00
2024-03-12T17:01:38.249Z,705.00
2024-03-12T17:02:37.842Z,707.00
2024-03-12T17:03:37.842Z,706.00
2024-03-12T17:04:37.821Z,703.00
2024-03-12T17:05:37.899Z,703.00
2024-03-12T17:06:37.918Z,702.00
2024-03-12T17:07:37.851Z,701.00
2024-03-12T17:08:37.915Z,702.00
2024-03-12T17:09:37.916Z,700.00
2024-03-12T17:10:37.870Z,699.00
2024-03-12T17:11:37.942Z,697.00
2024-03-12T17:12:37.895Z,699.00
2024-03-12T17:13:38.534Z,699.00
2024-03-12T17:14:37.876Z,700.00
2024-03-12T17:15:37.919Z,703.00
2024-03-12T17:16:37.859Z,707.00
2024-03-12T17:17:37.924Z,704.00
2024-03-12T17:18:37.898Z,705.00
2024-03-12T17:19:37.915Z,704.00
2024-03-12T17:20:38.037Z,699.00
2024-03-12T17:21:38.111Z,701.00
2024-03-12T17:22:38.194Z,701.00
2024-03-12T17:23:38.296Z,699.00
2024-03-12T17:24:38.444Z,699.00
2024-03-12T17:25:38.518Z,701.00
2024-03-12T17:26:38.616Z,705.00
2024-03-12T17:27:38.756Z,708.00
2024-03-12T17:28:38.845Z,707.00
2024-03-12T17:29:38.974Z,708.00
2024-03-12T17:30:39.076Z,707.00
2024-03-12T17:31:39.149Z,709.00
2024-03-12T17:32:39.264Z,712.00
2024-03-12T17:33:39.402Z,712.00
2024-03-12T17:34:39.493Z,713.00
2024-03-12T17:35:39.545Z,715.00
2024-03-12T17:36:39.711Z,717.00
2024-03-12T17:37:39.826Z,717.00
2024-03-12T17:38:39.904Z,716.00
2024-03-12T17:39:40.039Z,716.00
2024-03-12T17:40:40.120Z,715.00
2024-03-12T17:41:40.277Z,714.00
2024-03-12T17:42:40.346Z,714.00
2024-03-12T17:43:40.442Z,715.00
2024-03-12T17:44:40.556Z,715.00
2024-03-12T17:45:40.710Z,713.00
2024-03-12T17:46:40.755Z,711.00
2024-03-12T17:47:40.878Z,711.00
2024-03-12T17:48:41.054Z,713.00
2024-03-12T17:49:41.089Z,714.00
2024-03-12T17:50:41.196Z,711.00
2024-03-12T17:51:41.333Z,710.00
2024-03-12T17:52:41.405Z,713.00
2024-03-12T17:53:41.602Z,713.00
2024-03-12T17:54:41.638Z,711.00
2024-03-12T17:55:41.719Z,711.00
2024-03-12T17:56:41.831Z,717.00
2024-03-12T17:57:42.385Z,718.00
2024-03-12T17:58:42.056Z,718.00
2024-03-12T17:59:42.187Z,720.00
2024-03-12T18:00:42.410Z,717.00
